Time;durP1;ratioP1;P1;durP2;ratioP2;P2;SDS_P1;SDS_P2;PMS_P1;PMS_P2;Temp;Humidity;BMP_temperature;BMP_pressure;BME280_temperature;BME280_humidity;BME280_pressure;Samples;Min_cycle;Max_cycle;Signal;HPM_P1;HPM_P2
2021/03/31 00:04:13;;;;;;;169.70;86.20;;;;;;;9.26;75.28;99828.12;237060;1202;23104;-69
2021/03/31 00:09:16;;;;;;;192.63;95.60;;;;;;;9.04;75.26;99812.16;237338;1199;23105;-69
2021/03/31 00:14:19;;;;;;;183.05;93.40;;;;;;;8.99;75.68;99820.92;237321;1199;23105;-69
2021/03/31 00:19:21;;;;;;;187.00;95.30;;;;;;;9.02;75.63;99815.09;237264;1200;23354;-69
2021/03/31 00:24:24;;;;;;;193.77;101.73;;;;;;;9.07;76.46;99808.98;237136;1200;23115;-69
2021/03/31 00:29:27;;;;;;;196.10;99.65;;;;;;;9.08;76.21;99810.60;237354;1200;23105;-69
2021/03/31 00:34:30;;;;;;;194.97;97.20;;;;;;;9.02;75.56;99815.09;237399;1200;23126;-68
2021/03/31 00:39:33;;;;;;;188.70;94.25;;;;;;;8.84;75.49;99818.09;236933;1203;23115;-68
2021/03/31 00:44:35;;;;;;;178.73;94.23;;;;;;;8.79;76.53;99805.49;237145;1200;23115;-69
2021/03/31 00:49:39;;;;;;;179.23;93.53;;;;;;;8.82;76.32;99796.97;237434;1203;23135;-69
2021/03/31 00:54:42;;;;;;;182.65;94.45;;;;;;;8.84;76.52;99794.04;237284;1200;23112;-68
2021/03/31 00:59:45;;;;;;;190.63;95.13;;;;;;;8.81;76.35;99790.00;237274;1199;23228;-69
2021/03/31 01:04:48;;;;;;;174.10;90.30;;;;;;;8.83;76.98;99789.78;237735;1199;23136;-68
2021/03/31 01:09:53;;;;;;;173.70;92.10;;;;;;;8.85;76.59;99792.99;237178;1200;23119;-68
2021/03/31 01:15:06;;;;;;;173.93;93.97;;;;;;;8.84;76.81;99786.85;237128;1200;23113;-68
2021/03/31 01:20:54;;;;;;;171.23;86.43;;;;;;;8.82;77.28;99780.94;237578;1199;23148;-69
2021/03/31 01:26:11;;;;;;;160.00;84.70;;;;;;;8.80;77.19;99784.91;237040;1203;23131;-68
2021/03/31 01:31:42;;;;;;;140.80;74.20;;;;;;;8.63;75.98;99785.00;237417;1199;23117;-68
2021/03/31 01:36:46;;;;;;;;;;;;;;;8.40;76.27;99797.54;237056;1200;23113;-69
2021/03/31 01:41:50;;;;;;;137.20;70.40;;;;;;;8.24;76.91;99796.55;237574;1203;21625;-68
2021/03/31 01:46:56;;;;;;;149.87;80.07;;;;;;;8.13;77.27;99797.45;237290;1199;26114;-69
2021/03/31 01:52:03;;;;;;;151.35;78.70;;;;;;;8.10;76.96;99784.61;237117;1202;23244;-69
2021/03/31 01:57:07;;;;;;;147.80;77.75;;;;;;;8.11;77.29;99780.89;237115;1203;23210;-69
2021/03/31 02:02:12;;;;;;;152.03;80.53;;;;;;;8.19;77.80;99789.27;237269;1200;23125;-69
2021/03/31 02:07:17;;;;;;;156.60;82.70;;;;;;;8.19;77.65;99783.93;237140;1200;23090;-69
2021/03/31 02:12:24;;;;;;;145.83;77.10;;;;;;;8.18;77.66;99774.33;237212;1200;23267;-68
2021/03/31 02:17:27;;;;;;;148.70;75.90;;;;;;;8.17;77.86;99774.55;237069;1202;23075;-69
2021/03/31 02:22:31;;;;;;;141.50;77.03;;;;;;;8.16;77.76;99771.08;237404;1202;26159;-69
2021/03/31 02:27:34;;;;;;;141.60;76.75;;;;;;;8.12;78.19;99771.84;237229;1199;23128;-68
2021/03/31 02:32:39;;;;;;;138.05;75.95;;;;;;;8.12;78.14;99763.83;237277;1199;26118;-69
2021/03/31 02:37:45;;;;;;;137.13;74.83;;;;;;;8.08;78.30;99765.38;237048;1200;23250;-69
2021/03/31 02:42:49;;;;;;;133.20;70.57;;;;;;;8.08;77.90;99762.71;237043;1199;23138;-69
2021/03/31 02:47:54;;;;;;;140.03;72.83;;;;;;;8.09;78.05;99761.66;237355;1200;23109;-69
2021/03/31 02:52:59;;;;;;;128.43;69.53;;;;;;;8.06;78.30;99757.63;237094;1202;23134;-69
2021/03/31 02:58:02;;;;;;;122.57;64.97;;;;;;;8.01;78.04;99758.34;237331;1198;23283;-69
2021/03/31 03:03:07;;;;;;;109.73;60.13;;;;;;;8.00;78.67;99763.92;237135;1200;23121;-69
2021/03/31 03:08:09;;;;;;;109.20;57.30;;;;;;;7.96;78.00;99763.63;237143;1200;23265;-69
2021/03/31 03:13:13;;;;;;;90.43;50.00;;;;;;;7.84;78.07;99761.05;237173;1202;23111;-70
2021/03/31 03:18:16;;;;;;;103.20;56.15;;;;;;;7.76;78.55;99758.80;237350;1202;23131;-69
2021/03/31 03:23:21;;;;;;;99.60;58.10;;;;;;;7.71;78.52;99756.09;237347;1200;23108;-69
2021/03/31 03:28:29;;;;;;;100.70;55.83;;;;;;;7.73;78.76;99750.50;237170;1200;23129;-68
2021/03/31 03:33:32;;;;;;;102.10;54.95;;;;;;;7.77;79.13;99746.30;237441;1200;24854;-68
2021/03/31 03:38:36;;;;;;;96.60;53.57;;;;;;;7.79;78.98;99739.66;237381;1200;23105;-68
2021/03/31 03:43:42;;;;;;;106.57;56.87;;;;;;;7.80;79.02;99746.59;237282;1200;25994;-68
2021/03/31 03:48:45;;;;;;;99.63;55.37;;;;;;;7.76;79.14;99750.80;237250;1199;23090;-68
2021/03/31 03:53:48;;;;;;;95.20;51.05;;;;;;;7.68;78.50;99748.55;237650;1200;23163;-69
2021/03/31 03:58:51;;;;;;;82.40;47.77;;;;;;;7.64;78.71;99750.09;237447;1199;23127;-70
2021/03/31 04:03:54;;;;;;;81.57;45.60;;;;;;;7.47;78.63;99747.45;237128;1199;23112;-68
2021/03/31 04:08:56;;;;;;;78.47;43.53;;;;;;;7.34;79.24;99753.92;237205;1199;23230;-69
2021/03/31 04:14:02;;;;;;;82.53;48.23;;;;;;;7.23;78.97;99752.15;237187;1199;23105;-69
2021/03/31 04:19:12;;;;;;;102.70;56.75;;;;;;;7.13;79.10;99745.59;237273;1202;23202;-69
2021/03/31 04:24:15;;;;;;;106.23;58.83;;;;;;;7.16;79.32;99755.79;237157;1200;26127;-69
2021/03/31 04:29:20;;;;;;;104.53;57.03;;;;;;;7.20;79.76;99748.10;237406;1200;23105;-69
2021/03/31 04:34:24;;;;;;;113.00;60.65;;;;;;;7.17;79.50;99741.39;237208;1202;27493;-68
2021/03/31 04:39:26;;;;;;;107.17;58.17;;;;;;;7.17;79.41;99741.39;237191;1202;23163;-68
2021/03/31 04:44:29;;;;;;;105.33;57.13;;;;;;;7.21;79.76;99744.39;237423;1199;23296;-69
2021/03/31 04:49:31;;;;;;;110.40;59.50;;;;;;;7.28;79.62;99745.04;237134;1203;26523;-69
2021/03/31 04:54:33;;;;;;;102.50;57.80;;;;;;;7.32;79.92;99732.84;237184;1200;23112;-69
2021/03/31 04:59:40;;;;;;;102.17;57.03;;;;;;;7.39;79.70;99740.68;237091;1202;23118;-68
2021/03/31 05:04:42;;;;;;;95.47;53.97;;;;;;;7.47;79.60;99726.12;237087;1200;23120;-69
2021/03/31 05:09:45;;;;;;;93.70;49.80;;;;;;;7.58;79.44;99722.55;237057;1203;23112;-69
2021/03/31 05:14:48;;;;;;;87.15;51.00;;;;;;;7.73;79.92;99731.83;237193;1199;23141;-69
2021/03/31 05:19:50;;;;;;;86.33;47.97;;;;;;;7.81;80.04;99732.21;237119;1199;23125;-69
2021/03/31 05:24:53;;;;;;;77.43;45.43;;;;;;;7.96;80.26;99728.95;237054;1200;23189;-69
2021/03/31 05:29:56;;;;;;;75.30;41.70;;;;;;;8.11;80.08;99730.98;237052;1202;23125;-69
2021/03/31 05:35:01;;;;;;;71.17;41.07;;;;;;;8.34;80.39;99729.13;237130;1200;23134;-69
2021/03/31 05:40:07;;;;;;;73.20;40.55;;;;;;;8.52;80.32;99736.00;237060;1203;23142;-68
2021/03/31 05:45:13;;;;;;;68.15;39.95;;;;;;;8.72;80.03;99735.43;238486;1199;23358;-68
2021/03/31 05:50:17;;;;;;;67.80;41.80;;;;;;;8.92;79.88;99736.68;237171;1202;23558;-68
2021/03/31 05:55:20;;;;;;;69.50;40.10;;;;;;;9.11;79.77;99737.92;236721;1199;23112;-69
2021/03/31 06:00:25;;;;;;;68.27;40.63;;;;;;;9.33;79.57;99742.35;236979;1200;25115;-68
2021/03/31 06:05:28;;;;;;;75.55;41.05;;;;;;;9.52;79.50;99742.77;237229;1203;23108;-69
2021/03/31 06:10:31;;;;;;;70.17;39.23;;;;;;;9.70;79.02;99745.02;236572;1199;23112;-69
2021/03/31 06:15:41;;;;;;;66.67;37.47;;;;;;;9.89;78.67;99745.40;241894;1199;23164;-69
2021/03/31 06:20:50;;;;;;;64.93;37.10;;;;;;;10.17;78.76;99738.03;239158;1200;23263;-69
2021/03/31 06:26:02;;;;;;;63.15;38.95;;;;;;;10.38;78.21;99736.27;236692;1200;23138;-69
2021/03/31 06:31:15;;;;;;;69.27;38.77;;;;;;;10.55;77.92;99745.95;236619;1200;23116;-69
2021/03/31 06:36:18;;;;;;;60.15;34.65;;;;;;;10.77;77.65;99743.03;237039;1200;23109;-69
2021/03/31 06:46:34;;;;;;;60.30;35.13;;;;;;;11.21;77.18;99734.49;236995;1200;23273;-68
2021/03/31 06:51:38;;;;;;;61.07;37.53;;;;;;;11.40;76.83;99729.39;241119;1199;23116;-68
2021/03/31 06:56:45;;;;;;;57.70;34.70;;;;;;;11.62;76.35;99723.70;237111;1202;28357;-69
2021/03/31 07:01:47;;;;;;;53.80;33.30;;;;;;;11.79;75.59;99726.09;237122;1202;23112;-69
2021/03/31 07:07:11;;;;;;;54.85;33.10;;;;;;;12.00;75.33;99726.04;236486;1199;23114;-70
2021/03/31 07:12:16;;;;;;;58.05;34.50;;;;;;;12.25;75.52;99735.88;243310;1202;23105;-68
2021/03/31 07:17:25;;;;;;;65.43;34.90;;;;;;;12.50;74.99;99724.19;242261;1203;23112;-68
2021/03/31 07:22:27;;;;;;;59.67;36.63;;;;;;;12.74;74.52;99710.06;238699;1202;23111;-69
2021/03/31 07:27:31;;;;;;;53.03;33.40;;;;;;;12.99;73.41;99716.35;237025;1203;23104;-68
2021/03/31 07:32:48;;;;;;;52.40;33.20;;;;;;;13.24;73.23;99717.23;237712;1203;23126;-69
2021/03/31 07:37:52;;;;;;;51.30;30.90;;;;;;;13.49;73.15;99708.94;237173;1200;23115;-67
2021/03/31 07:43:03;;;;;;;44.80;27.55;;;;;;;13.80;72.23;99711.30;238049;1199;23239;-68
2021/03/31 07:48:07;;;;;;;44.30;28.45;;;;;;;14.07;71.90;99709.91;238516;1199;23128;-70
2021/03/31 07:53:14;;;;;;;41.20;26.53;;;;;;;14.35;71.28;99707.39;236973;1199;26259;-69
2021/03/31 07:58:30;;;;;;;40.40;26.60;;;;;;;14.65;70.72;99714.28;237345;1203;23116;-69
2021/03/31 08:03:39;;;;;;;32.15;21.05;;;;;;;14.90;69.04;99712.31;236811;1200;23118;-68
2021/03/31 08:08:46;;;;;;;31.35;20.30;;;;;;;15.10;65.86;99702.28;237223;1200;26364;-69
2021/03/31 08:13:53;;;;;;;30.00;19.45;;;;;;;15.25;65.40;99703.89;238082;1200;23108;-69
2021/03/31 08:18:57;;;;;;;28.25;18.95;;;;;;;15.47;64.49;99709.43;236745;1202;23139;-68
2021/03/31 08:24:03;;;;;;;27.85;19.20;;;;;;;15.70;63.13;99699.56;240189;1200;23107;-69
2021/03/31 08:29:09;;;;;;;32.90;21.40;;;;;;;15.87;63.62;99701.69;238521;1198;23102;-68
2021/03/31 08:34:14;;;;;;;30.37;20.10;;;;;;;16.14;63.04;99697.36;237741;1198;23609;-69
2021/03/31 08:39:17;;;;;;;29.10;20.25;;;;;;;16.34;62.67;99698.02;242149;1202;23114;-68
2021/03/31 08:44:31;;;;;;;31.90;21.50;;;;;;;16.59;62.52;99693.95;239237;1198;23135;-69
2021/03/31 08:49:34;;;;;;;33.20;20.70;;;;;;;16.81;62.18;99686.96;239721;1200;23134;-69
2021/03/31 08:54:39;;;;;;;29.30;20.55;;;;;;;17.00;61.47;99687.60;237934;1200;23102;-67
2021/03/31 08:59:46;;;;;;;35.65;20.85;;;;;;;17.19;60.17;99681.96;237434;1202;23211;-67
2021/03/31 09:04:57;;;;;;;30.55;20.05;;;;;;;17.34;59.93;99678.06;237117;1200;23138;-68
2021/03/31 09:10:01;;;;;;;30.07;20.37;;;;;;;17.54;59.51;99665.88;237504;1202;26006;-68
2021/03/31 09:15:04;;;;;;;29.05;19.15;;;;;;;17.72;59.22;99660.53;237950;1202;23109;-69
2021/03/31 09:20:10;;;;;;;28.03;18.37;;;;;;;17.92;58.29;99656.45;237376;1199;23111;-68
2021/03/31 09:25:15;;;;;;;30.63;17.20;;;;;;;18.12;58.16;99646.94;238024;1198;23243;-69
2021/03/31 09:30:38;;;;;;;25.60;15.40;;;;;;;18.41;57.84;99631.94;237691;1199;24411;-69
2021/03/31 09:35:44;;;;;;;25.55;15.40;;;;;;;18.57;56.26;99641.19;237262;1200;23166;-69
2021/03/31 09:41:00;;;;;;;17.40;10.50;;;;;;;18.77;53.86;99634.29;239874;1200;23101;-69
2021/03/31 09:46:04;;;;;;;18.47;11.93;;;;;;;18.95;55.52;99628.87;238485;1202;23221;-69
2021/03/31 09:51:13;;;;;;;18.50;11.55;;;;;;;19.09;53.94;99632.17;237926;1200;23246;-69
2021/03/31 09:56:18;;;;;;;15.50;10.20;;;;;;;19.12;51.28;99619.87;238137;1200;23221;-69
2021/03/31 10:01:22;;;;;;;18.90;11.30;;;;;;;19.21;52.48;99620.64;237423;1202;23115;-68
2021/03/31 10:06:25;;;;;;;18.35;11.25;;;;;;;19.38;52.96;99608.13;238500;1200;23105;-68
2021/03/31 10:11:36;;;;;;;20.57;13.13;;;;;;;19.51;51.26;99612.52;237445;1202;25990;-68
2021/03/31 10:16:39;;;;;;;27.75;13.35;;;;;;;19.65;51.96;99599.48;238341;1200;23256;-67
2021/03/31 10:21:44;;;;;;;19.55;11.60;;;;;;;19.82;50.66;99604.06;245460;1197;22877;-67
2021/03/31 10:26:49;;;;;;;15.00;9.80;;;;;;;19.93;49.96;99606.38;238530;1201;23195;-68
2021/03/31 10:32:16;;;;;;;16.90;11.43;;;;;;;19.97;49.30;99589.06;241628;1199;23124;-68
2021/03/31 10:48:22;;;;;;;14.70;9.85;;;;;;;20.45;49.52;99572.51;237340;1200;23121;-68
2021/03/31 10:53:39;;;;;;;15.20;9.35;;;;;;;20.59;49.08;99569.48;237772;1201;23207;-68
2021/03/31 10:58:42;;;;;;;11.90;8.43;;;;;;;20.65;48.46;99568.95;237432;1199;27317;-67
2021/03/31 11:03:44;;;;;;;12.00;7.90;;;;;;;20.76;48.92;99563.91;237268;1200;23109;-68
2021/03/31 11:08:48;;;;;;;12.65;7.60;;;;;;;20.86;48.30;99565.40;237345;1200;23743;-68
2021/03/31 11:13:51;;;;;;;12.10;8.10;;;;;;;20.96;47.94;99539.66;237857;1200;23567;-68
2021/03/31 11:29:18;;;;;;;11.25;8.40;;;;;;;21.24;46.89;99530.78;236889;1197;23105;-65
2021/03/31 11:34:20;;;;;;;9.75;7.00;;;;;;;21.31;46.21;99518.19;237098;1201;26214;-65
2021/03/31 11:39:23;;;;;;;14.35;7.35;;;;;;;21.46;46.38;99503.07;237833;1203;23124;-66
2021/03/31 11:44:25;;;;;;;10.27;7.17;;;;;;;21.63;46.53;99496.59;237586;1200;23199;-66
2021/03/31 11:49:28;;;;;;;10.93;7.17;;;;;;;21.78;46.05;99492.31;237755;1200;23131;-66
2021/03/31 11:54:30;;;;;;;11.80;7.10;;;;;;;21.80;44.11;99489.27;237245;1202;23174;-67
2021/03/31 11:59:35;;;;;;;10.80;7.70;;;;;;;21.68;44.05;99474.52;238194;1200;23117;-67
2021/03/31 12:04:38;;;;;;;10.77;6.73;;;;;;;21.68;44.35;99471.00;237594;1200;23241;-67
2021/03/31 12:09:41;;;;;;;9.60;6.50;;;;;;;21.84;45.06;99466.41;237386;1200;23117;-67
2021/03/31 12:14:44;;;;;;;9.63;5.87;;;;;;;22.04;45.41;99455.64;237309;1202;23106;-66
2021/03/31 12:19:47;;;;;;;9.80;5.90;;;;;;;22.14;44.77;99454.34;237186;1200;24742;-66
2021/03/31 12:24:50;;;;;;;6.60;4.98;;;;;;;22.19;44.38;99443.95;237771;1202;23273;-66
2021/03/31 12:29:52;;;;;;;9.08;5.80;;;;;;;22.16;43.50;99438.39;238503;1200;23109;-66
2021/03/31 12:34:55;;;;;;;8.30;5.90;;;;;;;22.16;43.31;99430.20;237405;1199;23237;-67
2021/03/31 12:39:58;;;;;;;6.37;5.17;;;;;;;22.26;44.01;99416.06;238241;1200;23082;-66
2021/03/31 12:45:00;;;;;;;8.08;5.13;;;;;;;22.36;43.29;99412.83;237120;1199;23129;-66
2021/03/31 12:50:06;;;;;;;8.87;5.60;;;;;;;22.38;43.16;99399.64;237854;1200;24572;-66
2021/03/31 12:55:13;;;;;;;7.28;5.33;;;;;;;22.39;43.15;99394.97;237928;1199;23269;-67
2021/03/31 13:00:17;;;;;;;6.68;5.40;;;;;;;22.47;42.81;99390.45;237392;1199;23108;-67
2021/03/31 13:05:41;;;;;;;8.03;5.38;;;;;;;22.54;42.73;99390.66;237686;1202;23218;-66
2021/03/31 13:10:45;;;;;;;6.20;4.97;;;;;;;22.50;42.36;99389.77;237424;1199;23128;-66
2021/03/31 13:16:03;;;;;;;9.13;6.48;;;;;;;22.51;41.86;99375.77;238622;1200;23130;-66
2021/03/31 13:32:14;;;;;;;7.40;4.55;;;;;;;22.53;42.02;99351.63;237446;1200;23114;-67
2021/03/31 13:42:47;;;;;;;;;;;;;;;22.41;41.23;99350.94;238457;1202;25526;-67
2021/03/31 13:47:53;;;;;;;5.60;3.23;;;;;;;22.40;40.93;99336.52;237555;1199;22107;-67
2021/03/31 13:52:57;;;;;;;4.40;3.00;;;;;;;22.45;41.34;99329.98;237653;1199;23196;-65
2021/03/31 13:58:01;;;;;;;4.85;3.20;;;;;;;22.44;41.08;99320.20;237855;1200;23109;-67
2021/03/31 14:03:05;;;;;;;3.03;2.73;;;;;;;22.45;41.61;99308.14;237295;1200;23137;-68
2021/03/31 14:08:07;;;;;;;4.00;2.53;;;;;;;22.49;41.37;99304.34;242215;1201;23250;-68
2021/03/31 14:13:30;;;;;;;4.93;2.60;;;;;;;22.55;41.46;99297.48;237491;1202;23138;-68
2021/03/31 14:18:52;;;;;;;3.33;2.60;;;;;;;22.61;41.33;99297.98;237383;1199;23183;-67
2021/03/31 14:23:55;;;;;;;4.53;2.50;;;;;;;22.63;41.30;99290.22;237368;1200;23256;-69
2021/03/31 14:28:58;;;;;;;3.55;2.23;;;;;;;22.56;40.91;99279.92;237896;1199;23114;-68
2021/03/31 14:34:04;;;;;;;5.98;2.50;;;;;;;22.55;40.97;99278.36;237938;1199;23102;-68
2021/03/31 14:39:27;;;;;;;3.65;2.10;;;;;;;22.55;40.93;99272.09;238198;1200;23276;-68
2021/03/31 14:44:50;;;;;;;2.90;2.07;;;;;;;22.51;40.88;99272.03;237631;1202;23109;-68
2021/03/31 14:49:53;;;;;;;3.18;1.88;;;;;;;22.56;40.71;99262.77;237959;1199;23316;-68
2021/03/31 15:00:10;;;;;;;2.57;1.90;;;;;;;22.56;40.92;99241.70;237912;1202;26211;-68
2021/03/31 15:05:14;;;;;;;3.53;1.90;;;;;;;22.63;40.77;99237.56;237748;1199;23097;-67
2021/03/31 15:10:17;;;;;;;1.97;1.37;;;;;;;22.65;40.58;99241.52;237950;1199;23501;-68
2021/03/31 15:15:40;;;;;;;1.77;1.50;;;;;;;22.65;40.51;99227.06;237666;1199;23106;-68
2021/03/31 15:26:29;;;;;;;3.63;1.40;;;;;;;22.45;39.49;99223.53;237642;1200;23100;-68
2021/03/31 15:31:31;;;;;;;1.53;1.15;;;;;;;22.33;39.67;99211.59;237514;1199;23131;-68
2021/03/31 15:36:38;;;;;;;1.85;1.48;;;;;;;22.21;39.31;99208.95;237521;1201;23101;-68
2021/03/31 15:41:46;;;;;;;1.95;1.18;;;;;;;22.11;39.38;99206.78;237802;1196;26479;-68
2021/03/31 15:46:54;;;;;;;2.70;1.70;;;;;;;22.01;39.01;99199.94;237759;1197;24757;-68
2021/03/31 15:52:02;;;;;;;2.48;1.53;;;;;;;21.94;39.10;99199.78;237623;1200;23385;-68
2021/03/31 15:57:10;;;;;;;1.70;1.20;;;;;;;21.86;39.03;99187.90;237988;1202;23164;-68
2021/03/31 16:02:19;;;;;;;1.33;1.13;;;;;;;21.75;38.84;99189.58;238240;1200;23109;-68
2021/03/31 16:07:31;;;;;;;2.60;1.50;;;;;;;21.56;39.23;99188.37;237811;1202;23109;-68
2021/03/31 16:12:39;;;;;;;5.10;3.17;;;;;;;21.40;39.02;99184.81;237851;1199;23112;-67
2021/03/31 16:17:42;;;;;;;3.65;2.30;;;;;;;21.20;38.79;99184.70;237545;1198;23109;-69
2021/03/31 16:22:50;;;;;;;2.45;1.95;;;;;;;21.02;38.81;99173.34;237490;1199;23109;-68
2021/03/31 16:33:05;;;;;;;3.60;2.45;;;;;;;20.68;38.94;99165.44;237791;1199;23131;-69
2021/03/31 16:38:14;;;;;;;3.77;2.40;;;;;;;20.50;39.15;99164.89;237474;1200;23119;-68
2021/03/31 16:43:21;;;;;;;5.10;3.03;;;;;;;20.27;39.61;99169.27;237720;1200;23113;-68
2021/03/31 16:48:30;;;;;;;5.85;4.20;;;;;;;20.03;39.82;99161.95;237656;1199;23112;-68
2021/03/31 16:53:37;;;;;;;9.10;4.40;;;;;;;19.76;40.34;99154.13;237350;1201;26364;-68
2021/03/31 16:58:47;;;;;;;9.00;5.50;;;;;;;19.49;40.69;99152.89;238113;1199;23309;-67
2021/03/31 17:03:54;;;;;;;9.90;6.40;;;;;;;19.20;40.86;99148.44;237903;1199;26580;-68
2021/03/31 17:09:02;;;;;;;5.65;4.10;;;;;;;18.94;41.01;99144.06;237461;1200;23104;-68
2021/03/31 17:14:13;;;;;;;9.73;4.50;;;;;;;18.71;41.07;99140.92;237432;1200;23109;-68
2021/03/31 17:19:21;;;;;;;8.00;5.80;;;;;;;18.49;41.18;99142.06;238280;1200;23133;-68
2021/03/31 17:24:28;;;;;;;14.10;6.40;;;;;;;18.24;41.56;99134.61;237687;1201;23125;-68
2021/03/31 17:29:36;;;;;;;11.10;7.40;;;;;;;18.00;41.75;99135.23;237583;1200;23109;-69
2021/03/31 17:34:43;;;;;;;14.70;8.10;;;;;;;17.79;41.77;99137.88;237807;1198;23116;-68
2021/03/31 17:39:51;;;;;;;13.17;7.73;;;;;;;17.60;42.14;99135.61;237861;1200;23161;-67
2021/03/31 17:44:55;;;;;;;12.55;7.60;;;;;;;17.44;42.28;99133.42;238238;1200;23140;-68
2021/03/31 17:50:10;;;;;;;14.63;8.13;;;;;;;17.28;42.62;99127.77;237875;1201;23125;-68
2021/03/31 17:55:19;;;;;;;14.35;8.70;;;;;;;17.10;43.05;99134.36;237678;1200;23109;-69
2021/03/31 18:00:27;;;;;;;18.60;10.17;;;;;;;16.86;43.14;99132.95;237807;1201;23102;-68
2021/03/31 18:05:35;;;;;;;17.55;10.45;;;;;;;16.65;43.42;99121.19;237818;1199;23102;-67
2021/03/31 18:10:40;;;;;;;17.15;10.45;;;;;;;16.45;43.77;99119.94;237994;1200;23109;-68
2021/03/31 18:15:49;;;;;;;21.20;12.20;;;;;;;16.25;44.01;99122.17;238030;1199;23254;-69
2021/03/31 18:20:52;;;;;;;21.70;12.20;;;;;;;16.05;44.27;99120.89;237658;1200;23099;-69
2021/03/31 18:25:59;;;;;;;23.60;12.60;;;;;;;15.88;44.59;99118.96;237729;1200;23112;-68
2021/03/31 18:31:07;;;;;;;33.80;15.25;;;;;;;15.68;45.53;99114.89;237652;1199;23105;-68
2021/03/31 18:36:15;;;;;;;27.55;14.85;;;;;;;15.48;46.06;99114.36;237906;1199;23237;-68
2021/03/31 18:41:27;;;;;;;38.50;15.30;;;;;;;15.28;46.68;99112.20;237641;1202;23101;-68
2021/03/31 18:46:36;;;;;;;28.65;14.45;;;;;;;15.09;47.04;99112.45;237655;1197;25999;-67
2021/03/31 18:51:45;;;;;;;40.70;15.85;;;;;;;14.91;48.35;99116.95;237810;1199;23124;-68
2021/03/31 18:56:53;;;;;;;45.00;17.33;;;;;;;14.74;48.55;99112.26;238035;1199;24721;-68
2021/03/31 19:02:01;;;;;;;39.77;16.43;;;;;;;14.59;49.02;99111.51;237600;1200;23103;-68
2021/03/31 19:07:08;;;;;;;35.60;17.60;;;;;;;14.43;49.62;99110.27;237892;1199;23109;-68
2021/03/31 19:12:16;;;;;;;43.15;17.60;;;;;;;14.26;50.50;99111.72;237796;1202;23120;-69
2021/03/31 19:17:29;;;;;;;43.57;22.00;;;;;;;14.09;50.56;99095.39;237503;1200;23089;-69
2021/03/31 19:22:37;;;;;;;42.80;19.37;;;;;;;13.95;50.95;99100.80;238926;1197;23215;-68
2021/03/31 19:27:44;;;;;;;48.50;26.80;;;;;;;13.80;51.00;99097.34;237785;1202;23178;-69
2021/03/31 19:32:52;;;;;;;49.35;27.05;;;;;;;13.67;51.49;99092.80;237980;1200;23126;-69
2021/03/31 19:38:00;;;;;;;50.70;29.20;;;;;;;13.54;52.34;99083.61;237479;1198;23100;-69
2021/03/31 19:43:09;;;;;;;48.30;30.55;;;;;;;13.41;52.45;99081.74;238418;1202;23261;-69
2021/03/31 19:48:16;;;;;;;56.57;31.20;;;;;;;13.28;52.95;99084.09;237549;1203;23186;-69
2021/03/31 19:53:30;;;;;;;59.43;32.17;;;;;;;13.17;54.12;99080.01;237916;1200;23103;-69
2021/03/31 19:58:38;;;;;;;50.55;28.90;;;;;;;13.04;54.15;99068.15;238087;1199;24833;-69
2021/03/31 20:03:46;;;;;;;60.30;34.87;;;;;;;12.96;54.29;99066.14;237787;1200;23101;-67
2021/03/31 20:08:49;;;;;;;63.50;35.47;;;;;;;12.85;54.92;99060.14;237666;1199;23230;-68
2021/03/31 20:13:56;;;;;;;67.50;34.05;;;;;;;12.75;54.77;99066.49;238017;1200;26070;-69
2021/03/31 20:18:59;;;;;;;65.10;32.17;;;;;;;12.72;55.46;99053.65;237601;1199;26570;-68
2021/03/31 20:24:07;;;;;;;63.33;35.10;;;;;;;12.71;55.90;99060.11;237809;1197;23118;-68
2021/03/31 20:29:15;;;;;;;57.13;31.43;;;;;;;12.70;56.87;99057.72;237913;1200;23102;-68
2021/03/31 20:34:24;;;;;;;71.53;34.23;;;;;;;12.60;56.84;99064.06;238175;1199;23122;-68
2021/03/31 20:39:32;;;;;;;77.78;40.15;;;;;;;12.54;56.98;99049.13;237980;1200;23111;-68
2021/03/31 20:44:35;;;;;;;87.00;44.00;;;;;;;12.46;56.47;99053.27;237730;1197;23160;-68
2021/03/31 20:49:42;;;;;;;91.57;45.60;;;;;;;12.39;56.71;99040.21;237733;1199;23117;-68
2021/03/31 20:54:49;;;;;;;92.17;44.57;;;;;;;12.32;56.29;99042.48;237743;1200;23109;-69
2021/03/31 20:59:57;;;;;;;78.80;42.40;;;;;;;12.28;56.28;99038.78;237820;1200;23177;-67
2021/03/31 21:05:06;;;;;;;80.70;40.90;;;;;;;12.24;56.57;99032.40;237912;1200;23468;-67
2021/03/31 21:10:13;;;;;;;77.87;39.83;;;;;;;12.18;56.33;99030.89;237884;1200;23111;-69
2021/03/31 21:15:21;;;;;;;80.07;39.33;;;;;;;12.11;57.28;99023.20;237581;1199;23133;-69
2021/03/31 21:20:29;;;;;;;83.15;37.45;;;;;;;12.05;57.40;99022.48;237678;1200;23206;-68
2021/03/31 21:25:37;;;;;;;68.50;36.33;;;;;;;12.03;57.87;99023.86;237548;1200;23167;-68
2021/03/31 21:30:44;;;;;;;70.65;37.35;;;;;;;12.06;57.87;99025.95;237672;1199;23217;-68
2021/03/31 21:35:51;;;;;;;78.57;38.83;;;;;;;12.08;57.76;99026.48;237828;1200;23084;-68
2021/03/31 21:40:59;;;;;;;79.30;40.20;;;;;;;12.08;57.75;99024.58;237823;1202;23126;-68
2021/03/31 21:46:06;;;;;;;74.75;39.65;;;;;;;12.05;57.57;99017.11;237931;1199;23090;-68
2021/03/31 21:51:17;;;;;;;72.17;39.20;;;;;;;12.00;57.74;99016.39;237652;1202;23160;-68
2021/03/31 21:56:20;;;;;;;64.75;36.70;;;;;;;11.92;57.83;99020.48;237964;1201;26217;-68
2021/03/31 22:01:23;;;;;;;65.57;35.57;;;;;;;11.83;58.43;99016.88;237663;1202;23107;-68
2021/03/31 22:06:26;;;;;;;61.10;34.95;;;;;;;11.73;58.72;99010.56;237804;1199;23090;-69
2021/03/31 22:11:29;;;;;;;63.65;33.50;;;;;;;11.66;58.89;99010.13;238059;1199;23118;-68
2021/03/31 22:16:32;;;;;;;63.80;33.65;;;;;;;11.62;59.09;99004.53;237851;1198;23111;-69
2021/03/31 22:21:35;;;;;;;65.00;35.40;;;;;;;11.61;59.66;99002.14;237938;1199;23111;-69
2021/03/31 22:26:38;;;;;;;70.40;38.35;;;;;;;11.61;59.96;98994.09;237740;1201;23109;-68
2021/03/31 22:31:40;;;;;;;65.85;35.70;;;;;;;11.59;59.84;98991.70;237644;1202;23256;-68
2021/03/31 22:36:43;;;;;;;58.17;32.93;;;;;;;11.59;59.78;98991.70;237909;1199;23105;-68
2021/03/31 22:41:46;;;;;;;65.57;32.13;;;;;;;11.59;60.00;98985.55;237552;1200;23109;-68
2021/03/31 22:46:51;;;;;;;61.03;33.00;;;;;;;11.58;59.91;98991.98;237989;1197;23339;-68
2021/03/31 22:51:53;;;;;;;59.43;32.60;;;;;;;11.52;60.32;98982.42;237830;1199;27508;-67
2021/03/31 22:56:55;;;;;;;62.17;33.73;;;;;;;11.46;60.30;98979.80;237681;1199;23129;-69
2021/03/31 23:01:59;;;;;;;59.33;32.37;;;;;;;11.44;60.55;98975.81;237732;1202;26121;-68
2021/03/31 23:07:03;;;;;;;63.37;33.43;;;;;;;11.43;61.01;98977.70;238072;1199;23302;-69
2021/03/31 23:12:06;;;;;;;59.25;32.60;;;;;;;11.41;60.87;98971.81;238432;1199;26256;-68
2021/03/31 23:17:27;;;;;;;54.33;31.03;;;;;;;11.40;61.42;98958.69;237833;1199;23235;-68
2021/03/31 23:22:30;;;;;;;58.97;32.23;;;;;;;11.36;61.64;98958.49;237760;1199;23253;-69
2021/03/31 23:27:35;;;;;;;55.75;30.80;;;;;;;11.30;61.86;98948.90;237742;1199;23137;-69
2021/03/31 23:32:38;;;;;;;62.83;34.07;;;;;;;11.24;61.86;98945.48;238314;1200;23102;-69
2021/03/31 23:37:42;;;;;;;67.33;33.50;;;;;;;11.20;62.27;98943.68;237987;1202;23106;-68
2021/03/31 23:42:46;;;;;;;60.60;32.67;;;;;;;11.13;62.68;98933.30;237890;1200;23114;-68
2021/03/31 23:47:49;;;;;;;58.70;32.77;;;;;;;11.08;62.82;98926.13;237839;1198;23160;-69
2021/03/31 23:52:52;;;;;;;66.90;35.20;;;;;;;11.05;62.84;98924.03;237952;1200;23160;-68
2021/03/31 23:57:55;;;;;;;71.10;36.80;;;;;;;10.98;63.09;98915.52;238175;1200;23116;-68
